sensor_id;sensor_type;location;lat;lon;timestamp;P1;durP1;ratioP1;P2;durP2;ratioP2
14883;SDS011;7534;50.762;7.000;2022-07-23T00:01:30;14.77;;;12.20;;
14883;SDS011;7534;50.762;7.000;2022-07-23T00:03:56;13.32;;;11.85;;
14883;SDS011;7534;50.762;7.000;2022-07-23T00:06:22;13.00;;;11.60;;
14883;SDS011;7534;50.762;7.000;2022-07-23T00:08:49;13.93;;;11.10;;
14883;SDS011;7534;50.762;7.000;2022-07-23T00:11:16;12.23;;;10.93;;
14883;SDS011;7534;50.762;7.000;2022-07-23T00:13:41;13.40;;;11.82;;
14883;SDS011;7534;50.762;7.000;2022-07-23T00:16:07;14.27;;;12.25;;
14883;SDS011;7534;50.762;7.000;2022-07-23T00:18:34;13.98;;;11.82;;
14883;SDS011;7534;50.762;7.000;2022-07-23T00:20:59;14.02;;;12.43;;
14883;SDS011;7534;50.762;7.000;2022-07-23T00:23:25;14.05;;;12.55;;
14883;SDS011;7534;50.762;7.000;2022-07-23T00:25:53;15.20;;;12.75;;
14883;SDS011;7534;50.762;7.000;2022-07-23T00:28:19;13.90;;;11.82;;
14883;SDS011;7534;50.762;7.000;2022-07-23T00:30:45;13.98;;;12.38;;
14883;SDS011;7534;50.762;7.000;2022-07-23T00:33:10;14.52;;;12.50;;
14883;SDS011;7534;50.762;7.000;2022-07-23T00:35:37;15.10;;;12.35;;
14883;SDS011;7534;50.762;7.000;2022-07-23T00:38:09;14.52;;;12.05;;
14883;SDS011;7534;50.762;7.000;2022-07-23T00:40:36;16.27;;;12.32;;
14883;SDS011;7534;50.762;7.000;2022-07-23T00:43:03;14.68;;;12.73;;
14883;SDS011;7534;50.762;7.000;2022-07-23T00:45:29;15.23;;;13.65;;
14883;SDS011;7534;50.762;7.000;2022-07-23T00:47:55;14.55;;;11.98;;
14883;SDS011;7534;50.762;7.000;2022-07-23T00:50:22;14.13;;;12.55;;
14883;SDS011;7534;50.762;7.000;2022-07-23T00:52:47;15.27;;;12.90;;
14883;SDS011;7534;50.762;7.000;2022-07-23T00:55:14;18.85;;;14.38;;
14883;SDS011;7534;50.762;7.000;2022-07-23T00:57:40;19.83;;;15.27;;
14883;SDS011;7534;50.762;7.000;2022-07-23T01:00:07;18.33;;;15.48;;
14883;SDS011;7534;50.762;7.000;2022-07-23T01:02:37;17.25;;;14.98;;
14883;SDS011;7534;50.762;7.000;2022-07-23T01:05:03;17.70;;;15.07;;
14883;SDS011;7534;50.762;7.000;2022-07-23T01:07:30;16.80;;;14.35;;
14883;SDS011;7534;50.762;7.000;2022-07-23T01:09:55;18.33;;;14.80;;
14883;SDS011;7534;50.762;7.000;2022-07-23T01:12:22;15.77;;;14.07;;
14883;SDS011;7534;50.762;7.000;2022-07-23T01:14:54;17.60;;;13.98;;
14883;SDS011;7534;50.762;7.000;2022-07-23T01:17:21;15.98;;;14.07;;
14883;SDS011;7534;50.762;7.000;2022-07-23T01:19:47;16.98;;;13.45;;
14883;SDS011;7534;50.762;7.000;2022-07-23T01:22:13;15.85;;;13.65;;
14883;SDS011;7534;50.762;7.000;2022-07-23T01:24:42;15.23;;;12.70;;
14883;SDS011;7534;50.762;7.000;2022-07-23T01:27:07;16.92;;;13.30;;
14883;SDS011;7534;50.762;7.000;2022-07-23T01:29:33;16.20;;;14.13;;
14883;SDS011;7534;50.762;7.000;2022-07-23T01:32:01;18.25;;;13.50;;
14883;SDS011;7534;50.762;7.000;2022-07-23T01:34:30;18.85;;;13.65;;
14883;SDS011;7534;50.762;7.000;2022-07-23T01:36:56;18.80;;;14.23;;
14883;SDS011;7534;50.762;7.000;2022-07-23T01:39:22;18.13;;;14.38;;
14883;SDS011;7534;50.762;7.000;2022-07-23T01:41:47;16.98;;;13.45;;
14883;SDS011;7534;50.762;7.000;2022-07-23T01:44:14;18.50;;;13.98;;
14883;SDS011;7534;50.762;7.000;2022-07-23T01:46:40;18.08;;;14.63;;
14883;SDS011;7534;50.762;7.000;2022-07-23T01:49:07;20.60;;;14.88;;
14883;SDS011;7534;50.762;7.000;2022-07-23T01:51:35;19.25;;;14.02;;
14883;SDS011;7534;50.762;7.000;2022-07-23T01:54:01;17.98;;;14.32;;
14883;SDS011;7534;50.762;7.000;2022-07-23T01:56:26;16.75;;;13.23;;
14883;SDS011;7534;50.762;7.000;2022-07-23T01:58:52;17.05;;;13.65;;
14883;SDS011;7534;50.762;7.000;2022-07-23T02:01:18;19.15;;;12.98;;
14883;SDS011;7534;50.762;7.000;2022-07-23T02:03:43;15.13;;;12.30;;
14883;SDS011;7534;50.762;7.000;2022-07-23T02:06:09;15.77;;;12.18;;
14883;SDS011;7534;50.762;7.000;2022-07-23T02:08:35;15.85;;;13.00;;
14883;SDS011;7534;50.762;7.000;2022-07-23T02:11:00;15.93;;;12.40;;
14883;SDS011;7534;50.762;7.000;2022-07-23T02:13:26;13.48;;;11.82;;
14883;SDS011;7534;50.762;7.000;2022-07-23T02:15:53;14.73;;;11.55;;
14883;SDS011;7534;50.762;7.000;2022-07-23T02:18:19;13.38;;;10.35;;
14883;SDS011;7534;50.762;7.000;2022-07-23T02:20:44;11.95;;;8.88;;
14883;SDS011;7534;50.762;7.000;2022-07-23T02:23:10;11.02;;;9.43;;
14883;SDS011;7534;50.762;7.000;2022-07-23T02:25:36;12.60;;;9.75;;
14883;SDS011;7534;50.762;7.000;2022-07-23T02:28:02;9.73;;;8.77;;
14883;SDS011;7534;50.762;7.000;2022-07-23T02:30:28;10.25;;;9.02;;
14883;SDS011;7534;50.762;7.000;2022-07-23T02:32:56;10.90;;;9.80;;
14883;SDS011;7534;50.762;7.000;2022-07-23T02:35:21;11.82;;;9.75;;
14883;SDS011;7534;50.762;7.000;2022-07-23T02:37:47;13.02;;;9.88;;
14883;SDS011;7534;50.762;7.000;2022-07-23T02:40:13;13.38;;;9.88;;
14883;SDS011;7534;50.762;7.000;2022-07-23T02:42:38;11.40;;;8.80;;
14883;SDS011;7534;50.762;7.000;2022-07-23T02:45:04;11.43;;;8.98;;
14883;SDS011;7534;50.762;7.000;2022-07-23T02:47:31;12.15;;;8.80;;
14883;SDS011;7534;50.762;7.000;2022-07-23T02:49:57;11.18;;;8.70;;
14883;SDS011;7534;50.762;7.000;2022-07-23T02:52:22;10.45;;;9.30;;
14883;SDS011;7534;50.762;7.000;2022-07-23T02:54:48;11.77;;;9.90;;
14883;SDS011;7534;50.762;7.000;2022-07-23T02:57:14;12.95;;;10.00;;
14883;SDS011;7534;50.762;7.000;2022-07-23T02:59:39;11.23;;;9.48;;
14883;SDS011;7534;50.762;7.000;2022-07-23T03:02:05;13.50;;;11.60;;
14883;SDS011;7534;50.762;7.000;2022-07-23T03:04:31;14.45;;;10.30;;
14883;SDS011;7534;50.762;7.000;2022-07-23T03:06:56;14.30;;;11.50;;
14883;SDS011;7534;50.762;7.000;2022-07-23T03:09:22;12.13;;;10.15;;
14883;SDS011;7534;50.762;7.000;2022-07-23T03:11:48;16.00;;;11.38;;
14883;SDS011;7534;50.762;7.000;2022-07-23T03:14:13;11.85;;;10.57;;
14883;SDS011;7534;50.762;7.000;2022-07-23T03:16:41;13.50;;;10.10;;
14883;SDS011;7534;50.762;7.000;2022-07-23T03:19:06;13.68;;;9.68;;
14883;SDS011;7534;50.762;7.000;2022-07-23T03:21:32;13.00;;;9.80;;
14883;SDS011;7534;50.762;7.000;2022-07-23T03:23:58;10.55;;;9.45;;
14883;SDS011;7534;50.762;7.000;2022-07-23T03:26:25;12.02;;;9.18;;
14883;SDS011;7534;50.762;7.000;2022-07-23T03:28:50;10.50;;;8.88;;
14883;SDS011;7534;50.762;7.000;2022-07-23T03:31:17;12.55;;;9.80;;
14883;SDS011;7534;50.762;7.000;2022-07-23T03:33:43;10.85;;;8.95;;
14883;SDS011;7534;50.762;7.000;2022-07-23T03:36:08;10.68;;;9.57;;
14883;SDS011;7534;50.762;7.000;2022-07-23T03:38:34;10.80;;;8.63;;
14883;SDS011;7534;50.762;7.000;2022-07-23T03:41:00;12.00;;;9.25;;
14883;SDS011;7534;50.762;7.000;2022-07-23T03:43:25;11.40;;;9.23;;
14883;SDS011;7534;50.762;7.000;2022-07-23T03:45:51;11.90;;;8.93;;
14883;SDS011;7534;50.762;7.000;2022-07-23T03:48:17;11.97;;;9.73;;
14883;SDS011;7534;50.762;7.000;2022-07-23T03:50:42;11.07;;;9.87;;
14883;SDS011;7534;50.762;7.000;2022-07-23T03:53:08;12.00;;;9.93;;
14883;SDS011;7534;50.762;7.000;2022-07-23T03:55:34;11.90;;;10.10;;
14883;SDS011;7534;50.762;7.000;2022-07-23T03:57:59;13.10;;;9.83;;
14883;SDS011;7534;50.762;7.000;2022-07-23T04:00:25;14.05;;;10.32;;
14883;SDS011;7534;50.762;7.000;2022-07-23T04:02:51;11.32;;;10.05;;
14883;SDS011;7534;50.762;7.000;2022-07-23T04:05:16;13.57;;;10.77;;
14883;SDS011;7534;50.762;7.000;2022-07-23T04:07:42;14.00;;;11.13;;
14883;SDS011;7534;50.762;7.000;2022-07-23T04:10:08;14.50;;;11.53;;
14883;SDS011;7534;50.762;7.000;2022-07-23T04:12:34;13.70;;;11.23;;
14883;SDS011;7534;50.762;7.000;2022-07-23T04:15:00;12.05;;;9.70;;
14883;SDS011;7534;50.762;7.000;2022-07-23T04:17:26;14.15;;;10.10;;
14883;SDS011;7534;50.762;7.000;2022-07-23T04:19:52;12.75;;;10.88;;
14883;SDS011;7534;50.762;7.000;2022-07-23T04:22:17;11.88;;;9.85;;
14883;SDS011;7534;50.762;7.000;2022-07-23T04:24:43;16.55;;;12.75;;
14883;SDS011;7534;50.762;7.000;2022-07-23T04:27:08;13.83;;;11.03;;
14883;SDS011;7534;50.762;7.000;2022-07-23T04:29:34;16.80;;;12.73;;
14883;SDS011;7534;50.762;7.000;2022-07-23T04:32:00;14.85;;;11.85;;
14883;SDS011;7534;50.762;7.000;2022-07-23T04:34:26;15.52;;;11.98;;
14883;SDS011;7534;50.762;7.000;2022-07-23T04:36:52;15.40;;;12.15;;
14883;SDS011;7534;50.762;7.000;2022-07-23T04:39:18;14.98;;;11.85;;
14883;SDS011;7534;50.762;7.000;2022-07-23T04:41:44;15.45;;;11.98;;
14883;SDS011;7534;50.762;7.000;2022-07-23T04:44:10;15.65;;;11.30;;
14883;SDS011;7534;50.762;7.000;2022-07-23T04:46:36;14.35;;;11.40;;
14883;SDS011;7534;50.762;7.000;2022-07-23T04:49:02;15.55;;;11.82;;
14883;SDS011;7534;50.762;7.000;2022-07-23T04:51:28;17.05;;;11.57;;
14883;SDS011;7534;50.762;7.000;2022-07-23T04:53:54;12.15;;;10.68;;
14883;SDS011;7534;50.762;7.000;2022-07-23T04:56:20;13.73;;;10.85;;
14883;SDS011;7534;50.762;7.000;2022-07-23T04:58:46;12.77;;;11.05;;
14883;SDS011;7534;50.762;7.000;2022-07-23T05:01:12;14.32;;;10.90;;
14883;SDS011;7534;50.762;7.000;2022-07-23T05:03:38;12.02;;;10.35;;
14883;SDS011;7534;50.762;7.000;2022-07-23T05:06:03;13.27;;;10.02;;
14883;SDS011;7534;50.762;7.000;2022-07-23T05:08:29;11.23;;;9.52;;
14883;SDS011;7534;50.762;7.000;2022-07-23T05:10:55;10.80;;;9.60;;
14883;SDS011;7534;50.762;7.000;2022-07-23T05:13:20;10.68;;;9.43;;
14883;SDS011;7534;50.762;7.000;2022-07-23T05:15:46;13.40;;;10.48;;
14883;SDS011;7534;50.762;7.000;2022-07-23T05:18:12;12.27;;;9.45;;
14883;SDS011;7534;50.762;7.000;2022-07-23T05:20:38;11.38;;;10.18;;
14883;SDS011;7534;50.762;7.000;2022-07-23T05:23:04;13.90;;;10.45;;
14883;SDS011;7534;50.762;7.000;2022-07-23T05:25:30;13.35;;;10.65;;
14883;SDS011;7534;50.762;7.000;2022-07-23T05:27:56;13.57;;;10.68;;
14883;SDS011;7534;50.762;7.000;2022-07-23T05:30:21;12.38;;;10.50;;
14883;SDS011;7534;50.762;7.000;2022-07-23T05:32:47;14.63;;;10.95;;
14883;SDS011;7534;50.762;7.000;2022-07-23T05:35:13;13.50;;;10.85;;
14883;SDS011;7534;50.762;7.000;2022-07-23T05:37:38;14.30;;;11.07;;
14883;SDS011;7534;50.762;7.000;2022-07-23T05:40:05;13.68;;;11.73;;
14883;SDS011;7534;50.762;7.000;2022-07-23T05:42:34;15.50;;;11.70;;
14883;SDS011;7534;50.762;7.000;2022-07-23T05:45:01;11.57;;;10.27;;
14883;SDS011;7534;50.762;7.000;2022-07-23T05:47:28;11.98;;;10.00;;
14883;SDS011;7534;50.762;7.000;2022-07-23T05:49:54;14.63;;;11.55;;
14883;SDS011;7534;50.762;7.000;2022-07-23T05:52:19;14.65;;;10.55;;
14883;SDS011;7534;50.762;7.000;2022-07-23T05:54:45;14.50;;;11.20;;
14883;SDS011;7534;50.762;7.000;2022-07-23T05:57:11;14.80;;;11.27;;
14883;SDS011;7534;50.762;7.000;2022-07-23T05:59:37;15.15;;;11.25;;
14883;SDS011;7534;50.762;7.000;2022-07-23T06:02:02;13.65;;;11.18;;
14883;SDS011;7534;50.762;7.000;2022-07-23T06:04:28;15.40;;;11.85;;
14883;SDS011;7534;50.762;7.000;2022-07-23T06:06:54;15.52;;;12.00;;
14883;SDS011;7534;50.762;7.000;2022-07-23T06:09:19;15.50;;;11.43;;
14883;SDS011;7534;50.762;7.000;2022-07-23T06:11:45;14.60;;;11.52;;
14883;SDS011;7534;50.762;7.000;2022-07-23T06:14:11;15.07;;;12.02;;
14883;SDS011;7534;50.762;7.000;2022-07-23T06:16:36;16.13;;;11.73;;
14883;SDS011;7534;50.762;7.000;2022-07-23T06:19:02;13.80;;;12.15;;
14883;SDS011;7534;50.762;7.000;2022-07-23T06:21:28;13.90;;;11.63;;
14883;SDS011;7534;50.762;7.000;2022-07-23T06:23:53;15.07;;;12.45;;
14883;SDS011;7534;50.762;7.000;2022-07-23T06:26:19;15.43;;;12.40;;
14883;SDS011;7534;50.762;7.000;2022-07-23T06:28:44;16.40;;;12.95;;
14883;SDS011;7534;50.762;7.000;2022-07-23T06:31:10;17.45;;;12.52;;
14883;SDS011;7534;50.762;7.000;2022-07-23T06:33:36;16.95;;;13.20;;
14883;SDS011;7534;50.762;7.000;2022-07-23T06:36:01;16.27;;;12.75;;
14883;SDS011;7534;50.762;7.000;2022-07-23T06:38:27;15.32;;;12.25;;
14883;SDS011;7534;50.762;7.000;2022-07-23T06:40:53;15.80;;;12.55;;
14883;SDS011;7534;50.762;7.000;2022-07-23T06:43:19;16.10;;;12.48;;
14883;SDS011;7534;50.762;7.000;2022-07-23T06:45:44;14.52;;;11.88;;
14883;SDS011;7534;50.762;7.000;2022-07-23T06:48:10;16.02;;;11.98;;
14883;SDS011;7534;50.762;7.000;2022-07-23T06:50:36;14.77;;;12.57;;
14883;SDS011;7534;50.762;7.000;2022-07-23T06:53:01;11.73;;;10.40;;
14883;SDS011;7534;50.762;7.000;2022-07-23T06:55:27;11.70;;;10.23;;
14883;SDS011;7534;50.762;7.000;2022-07-23T06:57:52;10.23;;;8.95;;
14883;SDS011;7534;50.762;7.000;2022-07-23T07:00:18;10.20;;;8.38;;
14883;SDS011;7534;50.762;7.000;2022-07-23T07:02:44;10.35;;;9.00;;
14883;SDS011;7534;50.762;7.000;2022-07-23T07:05:10;11.23;;;9.15;;
14883;SDS011;7534;50.762;7.000;2022-07-23T07:07:35;9.40;;;8.38;;
14883;SDS011;7534;50.762;7.000;2022-07-23T07:10:02;8.82;;;7.93;;
14883;SDS011;7534;50.762;7.000;2022-07-23T07:12:29;9.60;;;8.73;;
14883;SDS011;7534;50.762;7.000;2022-07-23T07:14:54;9.90;;;9.00;;
14883;SDS011;7534;50.762;7.000;2022-07-23T07:17:20;9.40;;;8.45;;
14883;SDS011;7534;50.762;7.000;2022-07-23T07:19:46;8.48;;;7.55;;
14883;SDS011;7534;50.762;7.000;2022-07-23T07:22:11;9.57;;;8.35;;
14883;SDS011;7534;50.762;7.000;2022-07-23T07:24:37;8.57;;;7.68;;
14883;SDS011;7534;50.762;7.000;2022-07-23T07:27:03;8.63;;;7.40;;
14883;SDS011;7534;50.762;7.000;2022-07-23T07:29:29;8.85;;;8.00;;
14883;SDS011;7534;50.762;7.000;2022-07-23T07:31:54;7.78;;;7.07;;
14883;SDS011;7534;50.762;7.000;2022-07-23T07:34:20;8.77;;;6.85;;
14883;SDS011;7534;50.762;7.000;2022-07-23T07:36:46;10.90;;;7.47;;
14883;SDS011;7534;50.762;7.000;2022-07-23T07:39:11;7.18;;;6.47;;
14883;SDS011;7534;50.762;7.000;2022-07-23T07:41:37;7.72;;;7.03;;
14883;SDS011;7534;50.762;7.000;2022-07-23T07:44:03;7.00;;;6.40;;
14883;SDS011;7534;50.762;7.000;2022-07-23T07:46:28;8.35;;;7.55;;
14883;SDS011;7534;50.762;7.000;2022-07-23T07:48:55;7.97;;;7.28;;
14883;SDS011;7534;50.762;7.000;2022-07-23T07:51:21;8.07;;;7.28;;
14883;SDS011;7534;50.762;7.000;2022-07-23T07:53:46;7.35;;;6.65;;
14883;SDS011;7534;50.762;7.000;2022-07-23T07:56:12;26.27;;;11.05;;
14883;SDS011;7534;50.762;7.000;2022-07-23T07:58:38;64.43;;;17.52;;
14883;SDS011;7534;50.762;7.000;2022-07-23T08:01:04;59.25;;;15.77;;
14883;SDS011;7534;50.762;7.000;2022-07-23T08:03:29;7.65;;;6.65;;
14883;SDS011;7534;50.762;7.000;2022-07-23T08:05:55;74.25;;;15.45;;
14883;SDS011;7534;50.762;7.000;2022-07-23T08:08:21;38.20;;;11.98;;
14883;SDS011;7534;50.762;7.000;2022-07-23T08:10:47;17.08;;;9.35;;
14883;SDS011;7534;50.762;7.000;2022-07-23T08:13:13;15.25;;;8.90;;
14883;SDS011;7534;50.762;7.000;2022-07-23T08:15:41;9.75;;;7.53;;
14883;SDS011;7534;50.762;7.000;2022-07-23T08:18:08;8.38;;;7.57;;
14883;SDS011;7534;50.762;7.000;2022-07-23T08:20:34;13.77;;;9.38;;
14883;SDS011;7534;50.762;7.000;2022-07-23T08:23:02;10.07;;;8.68;;
14883;SDS011;7534;50.762;7.000;2022-07-23T08:25:35;11.40;;;9.43;;
14883;SDS011;7534;50.762;7.000;2022-07-23T08:28:07;9.73;;;8.75;;
14883;SDS011;7534;50.762;7.000;2022-07-23T08:30:36;9.75;;;8.75;;
14883;SDS011;7534;50.762;7.000;2022-07-23T08:33:04;9.18;;;8.27;;
14883;SDS011;7534;50.762;7.000;2022-07-23T08:35:44;8.68;;;7.88;;
14883;SDS011;7534;50.762;7.000;2022-07-23T08:38:18;8.85;;;8.00;;
14883;SDS011;7534;50.762;7.000;2022-07-23T08:40:56;10.98;;;7.53;;
14883;SDS011;7534;50.762;7.000;2022-07-23T08:43:24;7.80;;;7.00;;
14883;SDS011;7534;50.762;7.000;2022-07-23T08:45:53;8.05;;;7.35;;
14883;SDS011;7534;50.762;7.000;2022-07-23T08:48:24;7.53;;;6.85;;
14883;SDS011;7534;50.762;7.000;2022-07-23T08:50:55;8.32;;;7.55;;
14883;SDS011;7534;50.762;7.000;2022-07-23T08:53:23;7.47;;;6.78;;
14883;SDS011;7534;50.762;7.000;2022-07-23T08:55:52;7.53;;;6.82;;
14883;SDS011;7534;50.762;7.000;2022-07-23T08:58:21;8.95;;;8.13;;
14883;SDS011;7534;50.762;7.000;2022-07-23T09:00:48;7.43;;;6.72;;
14883;SDS011;7534;50.762;7.000;2022-07-23T09:03:18;8.10;;;7.40;;
14883;SDS011;7534;50.762;7.000;2022-07-23T09:05:46;8.50;;;7.57;;
14883;SDS011;7534;50.762;7.000;2022-07-23T09:08:15;7.90;;;7.20;;
14883;SDS011;7534;50.762;7.000;2022-07-23T09:10:59;7.68;;;6.97;;
14883;SDS011;7534;50.762;7.000;2022-07-23T09:13:33;8.38;;;7.35;;
14883;SDS011;7534;50.762;7.000;2022-07-23T09:16:18;9.45;;;7.00;;
14883;SDS011;7534;50.762;7.000;2022-07-23T09:18:55;7.57;;;6.88;;
14883;SDS011;7534;50.762;7.000;2022-07-23T09:21:25;8.90;;;8.10;;
14883;SDS011;7534;50.762;7.000;2022-07-23T09:26:44;7.00;;;6.30;;
14883;SDS011;7534;50.762;7.000;2022-07-23T09:31:50;7.20;;;6.50;;
14883;SDS011;7534;50.762;7.000;2022-07-23T09:37:19;8.50;;;7.50;;
14883;SDS011;7534;50.762;7.000;2022-07-23T09:39:45;7.80;;;7.00;;
14883;SDS011;7534;50.762;7.000;2022-07-23T09:42:15;7.65;;;6.93;;
14883;SDS011;7534;50.762;7.000;2022-07-23T09:44:52;6.97;;;6.38;;
14883;SDS011;7534;50.762;7.000;2022-07-23T09:47:20;6.32;;;5.72;;
14883;SDS011;7534;50.762;7.000;2022-07-23T09:49:58;11.07;;;9.77;;
14883;SDS011;7534;50.762;7.000;2022-07-23T09:52:29;8.30;;;7.60;;
14883;SDS011;7534;50.762;7.000;2022-07-23T09:55:01;8.27;;;7.57;;
14883;SDS011;7534;50.762;7.000;2022-07-23T09:57:31;6.70;;;5.80;;
14883;SDS011;7534;50.762;7.000;2022-07-23T09:59:58;7.20;;;6.57;;
14883;SDS011;7534;50.762;7.000;2022-07-23T10:02:29;6.90;;;6.40;;
14883;SDS011;7534;50.762;7.000;2022-07-23T10:04:58;7.25;;;6.57;;
14883;SDS011;7534;50.762;7.000;2022-07-23T10:07:26;6.93;;;6.30;;
14883;SDS011;7534;50.762;7.000;2022-07-23T10:09:54;6.50;;;5.90;;
14883;SDS011;7534;50.762;7.000;2022-07-23T10:12:24;5.32;;;4.85;;
14883;SDS011;7534;50.762;7.000;2022-07-23T10:15:15;7.07;;;6.43;;
14883;SDS011;7534;50.762;7.000;2022-07-23T10:17:42;7.07;;;6.47;;
14883;SDS011;7534;50.762;7.000;2022-07-23T10:20:08;6.72;;;6.20;;
14883;SDS011;7534;50.762;7.000;2022-07-23T10:22:38;6.57;;;5.97;;
14883;SDS011;7534;50.762;7.000;2022-07-23T10:25:20;6.75;;;6.25;;
14883;SDS011;7534;50.762;7.000;2022-07-23T10:36:47;7.35;;;6.65;;
14883;SDS011;7534;50.762;7.000;2022-07-23T10:39:26;6.45;;;5.95;;
14883;SDS011;7534;50.762;7.000;2022-07-23T10:42:09;6.40;;;5.80;;
14883;SDS011;7534;50.762;7.000;2022-07-23T10:44:43;5.93;;;5.43;;
14883;SDS011;7534;50.762;7.000;2022-07-23T10:47:12;7.57;;;6.90;;
14883;SDS011;7534;50.762;7.000;2022-07-23T10:49:51;6.75;;;6.07;;
14883;SDS011;7534;50.762;7.000;2022-07-23T10:52:21;6.88;;;5.93;;
14883;SDS011;7534;50.762;7.000;2022-07-23T10:57:27;7.85;;;7.15;;
14883;SDS011;7534;50.762;7.000;2022-07-23T11:02:31;6.47;;;5.97;;
14883;SDS011;7534;50.762;7.000;2022-07-23T11:05:03;6.07;;;5.50;;
14883;SDS011;7534;50.762;7.000;2022-07-23T11:07:34;6.45;;;5.95;;
14883;SDS011;7534;50.762;7.000;2022-07-23T11:10:02;6.10;;;5.60;;
14883;SDS011;7534;50.762;7.000;2022-07-23T11:17:31;6.13;;;5.53;;
14883;SDS011;7534;50.762;7.000;2022-07-23T11:25:14;5.70;;;4.85;;
14883;SDS011;7534;50.762;7.000;2022-07-23T11:28:09;6.32;;;5.07;;
14883;SDS011;7534;50.762;7.000;2022-07-23T11:30:44;5.80;;;5.30;;
14883;SDS011;7534;50.762;7.000;2022-07-23T11:35:36;5.60;;;5.10;;
14883;SDS011;7534;50.762;7.000;2022-07-23T11:40:45;5.82;;;4.70;;
14883;SDS011;7534;50.762;7.000;2022-07-23T11:43:19;5.47;;;4.97;;
14883;SDS011;7534;50.762;7.000;2022-07-23T11:45:47;5.53;;;4.80;;
14883;SDS011;7534;50.762;7.000;2022-07-23T11:48:18;5.78;;;5.28;;
14883;SDS011;7534;50.762;7.000;2022-07-23T11:50:50;5.20;;;4.80;;
14883;SDS011;7534;50.762;7.000;2022-07-23T11:53:21;5.70;;;5.10;;
14883;SDS011;7534;50.762;7.000;2022-07-23T11:56:08;4.90;;;4.50;;
14883;SDS011;7534;50.762;7.000;2022-07-23T11:58:36;6.07;;;5.47;;
14883;SDS011;7534;50.762;7.000;2022-07-23T12:01:04;6.35;;;5.75;;
14883;SDS011;7534;50.762;7.000;2022-07-23T12:03:30;5.65;;;5.15;;
14883;SDS011;7534;50.762;7.000;2022-07-23T12:05:57;6.82;;;6.13;;
14883;SDS011;7534;50.762;7.000;2022-07-23T12:08:24;5.45;;;4.95;;
14883;SDS011;7534;50.762;7.000;2022-07-23T12:10:50;5.80;;;5.30;;
14883;SDS011;7534;50.762;7.000;2022-07-23T12:13:16;5.55;;;4.97;;
14883;SDS011;7534;50.762;7.000;2022-07-23T12:15:49;5.70;;;5.20;;
14883;SDS011;7534;50.762;7.000;2022-07-23T12:18:22;5.30;;;4.80;;
14883;SDS011;7534;50.762;7.000;2022-07-23T12:20:54;4.55;;;4.15;;
14883;SDS011;7534;50.762;7.000;2022-07-23T12:23:24;4.68;;;4.28;;
14883;SDS011;7534;50.762;7.000;2022-07-23T12:25:52;4.50;;;4.10;;
14883;SDS011;7534;50.762;7.000;2022-07-23T12:28:19;4.47;;;4.07;;
14883;SDS011;7534;50.762;7.000;2022-07-23T12:30:58;4.97;;;4.35;;
14883;SDS011;7534;50.762;7.000;2022-07-23T12:33:26;5.10;;;4.60;;
14883;SDS011;7534;50.762;7.000;2022-07-23T12:35:58;5.53;;;4.40;;
14883;SDS011;7534;50.762;7.000;2022-07-23T12:38:36;4.55;;;4.15;;
14883;SDS011;7534;50.762;7.000;2022-07-23T12:41:08;4.60;;;4.25;;
14883;SDS011;7534;50.762;7.000;2022-07-23T12:43:40;4.30;;;4.00;;
14883;SDS011;7534;50.762;7.000;2022-07-23T12:46:13;4.63;;;4.22;;
14883;SDS011;7534;50.762;7.000;2022-07-23T12:51:19;4.70;;;4.32;;
14883;SDS011;7534;50.762;7.000;2022-07-23T12:56:34;5.10;;;4.60;;
14883;SDS011;7534;50.762;7.000;2022-07-23T13:01:40;4.88;;;4.45;;
14883;SDS011;7534;50.762;7.000;2022-07-23T13:04:09;6.30;;;5.70;;
14883;SDS011;7534;50.762;7.000;2022-07-23T13:06:37;5.60;;;5.10;;
14883;SDS011;7534;50.762;7.000;2022-07-23T13:09:12;6.25;;;5.75;;
14883;SDS011;7534;50.762;7.000;2022-07-23T13:11:44;5.93;;;5.32;;
14883;SDS011;7534;50.762;7.000;2022-07-23T13:14:12;6.68;;;5.95;;
14883;SDS011;7534;50.762;7.000;2022-07-23T13:16:39;6.38;;;5.78;;
14883;SDS011;7534;50.762;7.000;2022-07-23T13:19:06;5.72;;;5.13;;
14883;SDS011;7534;50.762;7.000;2022-07-23T13:21:32;5.35;;;4.85;;
14883;SDS011;7534;50.762;7.000;2022-07-23T13:23:58;5.40;;;4.90;;
14883;SDS011;7534;50.762;7.000;2022-07-23T13:26:25;5.28;;;4.78;;
14883;SDS011;7534;50.762;7.000;2022-07-23T13:28:52;4.95;;;4.55;;
14883;SDS011;7534;50.762;7.000;2022-07-23T13:31:20;6.63;;;5.35;;
14883;SDS011;7534;50.762;7.000;2022-07-23T13:33:46;6.43;;;5.82;;
14883;SDS011;7534;50.762;7.000;2022-07-23T13:36:12;6.43;;;5.82;;
14883;SDS011;7534;50.762;7.000;2022-07-23T13:38:38;6.28;;;5.68;;
14883;SDS011;7534;50.762;7.000;2022-07-23T13:41:04;5.97;;;5.30;;
14883;SDS011;7534;50.762;7.000;2022-07-23T13:43:30;5.68;;;5.10;;
14883;SDS011;7534;50.762;7.000;2022-07-23T13:45:57;5.57;;;4.80;;
14883;SDS011;7534;50.762;7.000;2022-07-23T13:48:23;5.78;;;5.05;;
14883;SDS011;7534;50.762;7.000;2022-07-23T13:50:49;6.32;;;5.68;;
14883;SDS011;7534;50.762;7.000;2022-07-23T13:53:18;5.47;;;5.05;;
14883;SDS011;7534;50.762;7.000;2022-07-23T13:55:47;5.95;;;5.00;;
14883;SDS011;7534;50.762;7.000;2022-07-23T13:58:14;5.32;;;4.93;;
14883;SDS011;7534;50.762;7.000;2022-07-23T14:00:43;5.40;;;4.32;;
14883;SDS011;7534;50.762;7.000;2022-07-23T14:03:15;4.28;;;3.88;;
14883;SDS011;7534;50.762;7.000;2022-07-23T14:05:43;5.10;;;4.53;;
14883;SDS011;7534;50.762;7.000;2022-07-23T14:08:09;4.78;;;4.38;;
14883;SDS011;7534;50.762;7.000;2022-07-23T14:10:35;5.45;;;4.93;;
14883;SDS011;7534;50.762;7.000;2022-07-23T14:13:01;5.25;;;4.75;;
14883;SDS011;7534;50.762;7.000;2022-07-23T14:15:28;5.80;;;5.30;;
14883;SDS011;7534;50.762;7.000;2022-07-23T14:17:56;4.72;;;4.30;;
14883;SDS011;7534;50.762;7.000;2022-07-23T14:20:23;5.10;;;4.60;;
14883;SDS011;7534;50.762;7.000;2022-07-23T14:22:49;5.60;;;5.10;;
14883;SDS011;7534;50.762;7.000;2022-07-23T14:25:15;5.00;;;4.60;;
14883;SDS011;7534;50.762;7.000;2022-07-23T14:27:42;5.55;;;5.05;;
14883;SDS011;7534;50.762;7.000;2022-07-23T14:30:10;5.65;;;5.15;;
14883;SDS011;7534;50.762;7.000;2022-07-23T14:32:37;5.53;;;4.57;;
14883;SDS011;7534;50.762;7.000;2022-07-23T14:35:04;4.82;;;4.40;;
14883;SDS011;7534;50.762;7.000;2022-07-23T14:37:31;4.18;;;3.78;;
14883;SDS011;7534;50.762;7.000;2022-07-23T14:39:58;4.60;;;4.20;;
14883;SDS011;7534;50.762;7.000;2022-07-23T14:42:24;4.85;;;3.95;;
14883;SDS011;7534;50.762;7.000;2022-07-23T14:44:51;5.50;;;4.32;;
14883;SDS011;7534;50.762;7.000;2022-07-23T14:47:16;4.30;;;3.90;;
14883;SDS011;7534;50.762;7.000;2022-07-23T14:49:43;4.38;;;3.97;;
14883;SDS011;7534;50.762;7.000;2022-07-23T14:52:08;4.93;;;4.50;;
14883;SDS011;7534;50.762;7.000;2022-07-23T14:54:34;5.78;;;4.43;;
14883;SDS011;7534;50.762;7.000;2022-07-23T14:57:00;4.50;;;4.10;;
14883;SDS011;7534;50.762;7.000;2022-07-23T14:59:27;4.55;;;4.15;;
14883;SDS011;7534;50.762;7.000;2022-07-23T15:01:55;4.28;;;3.88;;
14883;SDS011;7534;50.762;7.000;2022-07-23T15:04:21;4.47;;;4.18;;
14883;SDS011;7534;50.762;7.000;2022-07-23T15:06:47;5.07;;;4.57;;
14883;SDS011;7534;50.762;7.000;2022-07-23T15:09:13;5.85;;;4.30;;
14883;SDS011;7534;50.762;7.000;2022-07-23T15:11:39;4.20;;;3.90;;
14883;SDS011;7534;50.762;7.000;2022-07-23T15:14:05;4.20;;;3.90;;
14883;SDS011;7534;50.762;7.000;2022-07-23T15:16:33;4.97;;;4.07;;
14883;SDS011;7534;50.762;7.000;2022-07-23T15:19:00;4.22;;;3.88;;
14883;SDS011;7534;50.762;7.000;2022-07-23T15:21:27;4.13;;;3.78;;
14883;SDS011;7534;50.762;7.000;2022-07-23T15:23:54;4.00;;;3.60;;
14883;SDS011;7534;50.762;7.000;2022-07-23T15:26:23;4.15;;;3.78;;
14883;SDS011;7534;50.762;7.000;2022-07-23T15:28:54;4.03;;;3.72;;
14883;SDS011;7534;50.762;7.000;2022-07-23T15:31:20;3.63;;;3.33;;
14883;SDS011;7534;50.762;7.000;2022-07-23T15:33:48;3.83;;;3.50;;
14883;SDS011;7534;50.762;7.000;2022-07-23T15:36:13;4.72;;;3.70;;